sensor_id;sensor_type;location;lat;lon;timestamp;temperature;humidity
2723;DHT22;1369;53.216;10.396;2023-04-12T00:01:05;3.40;99.90
2723;DHT22;1369;53.216;10.396;2023-04-12T00:03:31;3.40;99.90
2723;DHT22;1369;53.216;10.396;2023-04-12T00:05:59;3.30;99.90
2723;DHT22;1369;53.216;10.396;2023-04-12T00:08:27;3.30;99.90
2723;DHT22;1369;53.216;10.396;2023-04-12T00:10:58;3.20;99.90
2723;DHT22;1369;53.216;10.396;2023-04-12T00:13:24;3.10;99.90
2723;DHT22;1369;53.216;10.396;2023-04-12T00:15:50;3.10;99.90
2723;DHT22;1369;53.216;10.396;2023-04-12T00:18:16;3.00;99.90
2723;DHT22;1369;53.216;10.396;2023-04-12T00:20:42;3.10;99.90
2723;DHT22;1369;53.216;10.396;2023-04-12T00:23:07;3.10;99.90
2723;DHT22;1369;53.216;10.396;2023-04-12T00:25:34;3.00;99.90
2723;DHT22;1369;53.216;10.396;2023-04-12T00:28:01;2.90;99.90
2723;DHT22;1369;53.216;10.396;2023-04-12T00:30:26;3.00;99.90
2723;DHT22;1369;53.216;10.396;2023-04-12T00:32:52;2.90;99.90
2723;DHT22;1369;53.216;10.396;2023-04-12T00:35:18;2.90;99.90
2723;DHT22;1369;53.216;10.396;2023-04-12T00:37:43;2.70;99.90
2723;DHT22;1369;53.216;10.396;2023-04-12T00:40:09;2.70;99.90
2723;DHT22;1369;53.216;10.396;2023-04-12T00:42:35;2.70;99.90
2723;DHT22;1369;53.216;10.396;2023-04-12T00:45:01;2.70;99.90
2723;DHT22;1369;53.216;10.396;2023-04-12T00:47:27;2.70;99.90
2723;DHT22;1369;53.216;10.396;2023-04-12T00:49:54;2.70;99.90
2723;DHT22;1369;53.216;10.396;2023-04-12T00:52:20;2.70;99.90
2723;DHT22;1369;53.216;10.396;2023-04-12T00:54:46;2.80;99.90
2723;DHT22;1369;53.216;10.396;2023-04-12T00:57:12;2.70;99.90
2723;DHT22;1369;53.216;10.396;2023-04-12T00:59:37;2.70;99.90
2723;DHT22;1369;53.216;10.396;2023-04-12T01:02:03;2.80;99.90
2723;DHT22;1369;53.216;10.396;2023-04-12T01:04:28;2.70;99.90
2723;DHT22;1369;53.216;10.396;2023-04-12T01:07:14;2.70;99.90
2723;DHT22;1369;53.216;10.396;2023-04-12T01:15:12;2.60;99.90
2723;DHT22;1369;53.216;10.396;2023-04-12T01:17:56;2.50;99.90
2723;DHT22;1369;53.216;10.396;2023-04-12T01:20:27;2.50;99.90
2723;DHT22;1369;53.216;10.396;2023-04-12T01:23:12;2.60;99.90
2723;DHT22;1369;53.216;10.396;2023-04-12T01:26:23;2.70;99.90
2723;DHT22;1369;53.216;10.396;2023-04-12T01:28:53;2.70;99.90
2723;DHT22;1369;53.216;10.396;2023-04-12T01:31:19;2.60;99.90
2723;DHT22;1369;53.216;10.396;2023-04-12T01:33:46;2.50;99.90
2723;DHT22;1369;53.216;10.396;2023-04-12T01:36:17;2.40;99.90
2723;DHT22;1369;53.216;10.396;2023-04-12T01:38:43;2.40;99.90
2723;DHT22;1369;53.216;10.396;2023-04-12T01:41:09;2.50;99.90
2723;DHT22;1369;53.216;10.396;2023-04-12T01:43:45;2.60;99.90
2723;DHT22;1369;53.216;10.396;2023-04-12T01:46:13;2.60;99.90
2723;DHT22;1369;53.216;10.396;2023-04-12T01:48:47;2.60;99.90
2723;DHT22;1369;53.216;10.396;2023-04-12T01:54:16;2.50;99.90
2723;DHT22;1369;53.216;10.396;2023-04-12T01:56:46;2.50;99.90
2723;DHT22;1369;53.216;10.396;2023-04-12T01:59:14;2.50;99.90
2723;DHT22;1369;53.216;10.396;2023-04-12T02:01:41;2.60;99.90
2723;DHT22;1369;53.216;10.396;2023-04-12T02:04:08;2.60;99.90
2723;DHT22;1369;53.216;10.396;2023-04-12T02:06:33;2.60;99.90
2723;DHT22;1369;53.216;10.396;2023-04-12T02:09:02;2.60;99.90
2723;DHT22;1369;53.216;10.396;2023-04-12T02:11:28;2.60;99.90
2723;DHT22;1369;53.216;10.396;2023-04-12T02:13:53;2.60;99.90
2723;DHT22;1369;53.216;10.396;2023-04-12T02:16:19;2.60;99.90
2723;DHT22;1369;53.216;10.396;2023-04-12T02:18:47;2.50;99.90
2723;DHT22;1369;53.216;10.396;2023-04-12T02:21:13;2.50;99.90
2723;DHT22;1369;53.216;10.396;2023-04-12T02:23:39;2.50;99.90
2723;DHT22;1369;53.216;10.396;2023-04-12T02:26:06;2.60;99.90
2723;DHT22;1369;53.216;10.396;2023-04-12T02:28:31;2.60;99.90
2723;DHT22;1369;53.216;10.396;2023-04-12T02:30:58;2.60;99.90
2723;DHT22;1369;53.216;10.396;2023-04-12T02:33:24;2.60;99.90
2723;DHT22;1369;53.216;10.396;2023-04-12T02:35:50;2.60;99.90
2723;DHT22;1369;53.216;10.396;2023-04-12T02:38:16;2.60;99.90
2723;DHT22;1369;53.216;10.396;2023-04-12T02:40:41;2.50;99.90
2723;DHT22;1369;53.216;10.396;2023-04-12T02:43:08;2.60;99.90
2723;DHT22;1369;53.216;10.396;2023-04-12T02:45:33;2.60;99.90
2723;DHT22;1369;53.216;10.396;2023-04-12T02:47:59;2.60;99.90
2723;DHT22;1369;53.216;10.396;2023-04-12T02:50:24;2.60;99.90
2723;DHT22;1369;53.216;10.396;2023-04-12T02:52:50;2.60;99.90
2723;DHT22;1369;53.216;10.396;2023-04-12T02:55:15;2.60;99.90
2723;DHT22;1369;53.216;10.396;2023-04-12T02:57:43;2.50;99.90
2723;DHT22;1369;53.216;10.396;2023-04-12T03:00:10;2.50;99.90
2723;DHT22;1369;53.216;10.396;2023-04-12T03:02:39;2.50;99.90
2723;DHT22;1369;53.216;10.396;2023-04-12T03:05:05;2.50;99.90
2723;DHT22;1369;53.216;10.396;2023-04-12T03:07:31;2.50;99.90
2723;DHT22;1369;53.216;10.396;2023-04-12T03:09:57;2.60;99.90
2723;DHT22;1369;53.216;10.396;2023-04-12T03:12:23;2.70;99.90
2723;DHT22;1369;53.216;10.396;2023-04-12T03:14:49;2.80;99.90
2723;DHT22;1369;53.216;10.396;2023-04-12T03:17:14;2.70;99.90
2723;DHT22;1369;53.216;10.396;2023-04-12T03:19:40;2.70;99.90
2723;DHT22;1369;53.216;10.396;2023-04-12T03:22:05;2.60;99.90
2723;DHT22;1369;53.216;10.396;2023-04-12T03:24:31;2.70;99.90
2723;DHT22;1369;53.216;10.396;2023-04-12T03:27:02;2.70;99.90
2723;DHT22;1369;53.216;10.396;2023-04-12T03:29:28;2.70;99.90
2723;DHT22;1369;53.216;10.396;2023-04-12T03:31:53;2.70;99.90
2723;DHT22;1369;53.216;10.396;2023-04-12T03:34:19;2.70;99.90
2723;DHT22;1369;53.216;10.396;2023-04-12T03:36:44;2.70;99.90
2723;DHT22;1369;53.216;10.396;2023-04-12T03:39:10;2.60;99.90
2723;DHT22;1369;53.216;10.396;2023-04-12T03:41:35;2.70;99.90
2723;DHT22;1369;53.216;10.396;2023-04-12T03:44:01;2.80;99.90
2723;DHT22;1369;53.216;10.396;2023-04-12T03:46:26;2.80;99.90
2723;DHT22;1369;53.216;10.396;2023-04-12T03:48:52;2.80;99.90
2723;DHT22;1369;53.216;10.396;2023-04-12T03:51:17;2.70;99.90
2723;DHT22;1369;53.216;10.396;2023-04-12T03:53:46;2.80;99.90
2723;DHT22;1369;53.216;10.396;2023-04-12T03:56:12;2.70;99.90
2723;DHT22;1369;53.216;10.396;2023-04-12T03:58:38;2.70;99.90
2723;DHT22;1369;53.216;10.396;2023-04-12T04:01:04;2.70;99.90
2723;DHT22;1369;53.216;10.396;2023-04-12T04:03:31;2.80;99.90
2723;DHT22;1369;53.216;10.396;2023-04-12T04:05:59;2.80;99.90
2723;DHT22;1369;53.216;10.396;2023-04-12T04:08:25;2.80;99.90
2723;DHT22;1369;53.216;10.396;2023-04-12T04:10:50;2.70;99.90
2723;DHT22;1369;53.216;10.396;2023-04-12T04:13:16;2.60;99.90
2723;DHT22;1369;53.216;10.396;2023-04-12T04:15:41;2.70;99.90
2723;DHT22;1369;53.216;10.396;2023-04-12T04:18:07;2.70;99.90
2723;DHT22;1369;53.216;10.396;2023-04-12T04:20:32;2.70;99.90
2723;DHT22;1369;53.216;10.396;2023-04-12T04:22:58;2.70;99.90
2723;DHT22;1369;53.216;10.396;2023-04-12T04:25:23;2.80;99.90
2723;DHT22;1369;53.216;10.396;2023-04-12T04:27:56;2.80;99.90
2723;DHT22;1369;53.216;10.396;2023-04-12T04:30:24;2.80;99.90
2723;DHT22;1369;53.216;10.396;2023-04-12T04:32:49;2.80;99.90
2723;DHT22;1369;53.216;10.396;2023-04-12T04:35:15;2.80;99.90
2723;DHT22;1369;53.216;10.396;2023-04-12T04:37:41;2.90;99.90
2723;DHT22;1369;53.216;10.396;2023-04-12T04:40:08;3.00;99.90
2723;DHT22;1369;53.216;10.396;2023-04-12T04:42:33;3.20;99.90
2723;DHT22;1369;53.216;10.396;2023-04-12T04:44:59;3.20;99.90
2723;DHT22;1369;53.216;10.396;2023-04-12T04:47:27;3.20;99.90
2723;DHT22;1369;53.216;10.396;2023-04-12T04:49:55;3.30;99.90
2723;DHT22;1369;53.216;10.396;2023-04-12T04:52:22;3.20;99.90
2723;DHT22;1369;53.216;10.396;2023-04-12T04:54:47;3.30;99.90
2723;DHT22;1369;53.216;10.396;2023-04-12T04:57:13;3.30;99.90
2723;DHT22;1369;53.216;10.396;2023-04-12T04:59:39;3.30;99.90
2723;DHT22;1369;53.216;10.396;2023-04-12T05:02:04;3.30;99.90
2723;DHT22;1369;53.216;10.396;2023-04-12T05:04:30;3.20;99.90
2723;DHT22;1369;53.216;10.396;2023-04-12T05:06:55;3.30;99.90
2723;DHT22;1369;53.216;10.396;2023-04-12T05:09:21;3.40;99.90
2723;DHT22;1369;53.216;10.396;2023-04-12T05:11:46;3.30;99.90
2723;DHT22;1369;53.216;10.396;2023-04-12T05:14:12;3.40;99.90
2723;DHT22;1369;53.216;10.396;2023-04-12T05:16:37;3.40;99.90
2723;DHT22;1369;53.216;10.396;2023-04-12T05:19:03;3.50;99.90
2723;DHT22;1369;53.216;10.396;2023-04-12T05:21:28;3.50;99.90
2723;DHT22;1369;53.216;10.396;2023-04-12T05:23:54;3.50;99.90
2723;DHT22;1369;53.216;10.396;2023-04-12T05:26:19;3.50;99.90
2723;DHT22;1369;53.216;10.396;2023-04-12T05:28:46;3.60;99.90
2723;DHT22;1369;53.216;10.396;2023-04-12T05:31:11;3.60;99.90
2723;DHT22;1369;53.216;10.396;2023-04-12T05:33:37;3.70;99.90
2723;DHT22;1369;53.216;10.396;2023-04-12T05:36:03;3.70;99.90
2723;DHT22;1369;53.216;10.396;2023-04-12T05:38:28;3.70;99.90
2723;DHT22;1369;53.216;10.396;2023-04-12T05:40:54;3.80;99.90
2723;DHT22;1369;53.216;10.396;2023-04-12T05:43:19;3.90;99.90
2723;DHT22;1369;53.216;10.396;2023-04-12T05:45:45;4.00;99.90
2723;DHT22;1369;53.216;10.396;2023-04-12T05:48:10;4.00;99.90
2723;DHT22;1369;53.216;10.396;2023-04-12T05:50:36;4.00;99.90
2723;DHT22;1369;53.216;10.396;2023-04-12T05:53:02;4.00;99.90
2723;DHT22;1369;53.216;10.396;2023-04-12T05:55:28;4.10;99.90
2723;DHT22;1369;53.216;10.396;2023-04-12T05:57:53;4.20;99.90
2723;DHT22;1369;53.216;10.396;2023-04-12T06:00:19;4.40;99.90
2723;DHT22;1369;53.216;10.396;2023-04-12T06:02:46;4.40;99.90
2723;DHT22;1369;53.216;10.396;2023-04-12T06:05:12;4.50;99.90
2723;DHT22;1369;53.216;10.396;2023-04-12T06:07:39;4.60;99.90
2723;DHT22;1369;53.216;10.396;2023-04-12T06:10:05;4.70;99.90
2723;DHT22;1369;53.216;10.396;2023-04-12T06:12:31;4.80;99.90
2723;DHT22;1369;53.216;10.396;2023-04-12T06:14:57;5.00;99.90
2723;DHT22;1369;53.216;10.396;2023-04-12T06:17:22;5.30;99.90
2723;DHT22;1369;53.216;10.396;2023-04-12T06:19:48;5.70;99.90
2723;DHT22;1369;53.216;10.396;2023-04-12T06:22:14;5.90;99.90
2723;DHT22;1369;53.216;10.396;2023-04-12T06:24:40;6.00;99.90
2723;DHT22;1369;53.216;10.396;2023-04-12T06:27:05;6.10;99.90
2723;DHT22;1369;53.216;10.396;2023-04-12T06:29:31;6.10;99.90
2723;DHT22;1369;53.216;10.396;2023-04-12T06:31:56;6.10;99.90
2723;DHT22;1369;53.216;10.396;2023-04-12T06:34:22;6.20;99.90
2723;DHT22;1369;53.216;10.396;2023-04-12T06:36:47;6.30;99.90
2723;DHT22;1369;53.216;10.396;2023-04-12T06:39:13;6.50;99.90
2723;DHT22;1369;53.216;10.396;2023-04-12T06:41:40;6.60;99.90
2723;DHT22;1369;53.216;10.396;2023-04-12T06:44:08;6.70;99.90
2723;DHT22;1369;53.216;10.396;2023-04-12T06:46:33;6.90;99.90
2723;DHT22;1369;53.216;10.396;2023-04-12T06:48:59;7.00;99.90
2723;DHT22;1369;53.216;10.396;2023-04-12T06:51:25;7.10;99.90
2723;DHT22;1369;53.216;10.396;2023-04-12T06:53:50;7.20;99.90
2723;DHT22;1369;53.216;10.396;2023-04-12T06:56:15;7.40;99.90
2723;DHT22;1369;53.216;10.396;2023-04-12T06:58:41;7.60;99.90
2723;DHT22;1369;53.216;10.396;2023-04-12T07:01:07;7.80;99.90
2723;DHT22;1369;53.216;10.396;2023-04-12T07:03:34;7.90;99.90
2723;DHT22;1369;53.216;10.396;2023-04-12T07:06:00;8.10;99.90
2723;DHT22;1369;53.216;10.396;2023-04-12T07:08:27;8.30;99.90
2723;DHT22;1369;53.216;10.396;2023-04-12T07:10:54;8.40;99.90
2723;DHT22;1369;53.216;10.396;2023-04-12T07:13:19;8.70;99.90
2723;DHT22;1369;53.216;10.396;2023-04-12T07:15:45;9.50;99.90
2723;DHT22;1369;53.216;10.396;2023-04-12T07:18:11;10.30;99.90
2723;DHT22;1369;53.216;10.396;2023-04-12T07:20:36;11.00;99.90
2723;DHT22;1369;53.216;10.396;2023-04-12T07:23:02;11.80;99.90
2723;DHT22;1369;53.216;10.396;2023-04-12T07:25:27;12.40;99.90
2723;DHT22;1369;53.216;10.396;2023-04-12T07:27:53;12.30;99.90
2723;DHT22;1369;53.216;10.396;2023-04-12T07:30:18;12.00;99.90
2723;DHT22;1369;53.216;10.396;2023-04-12T07:32:44;11.00;99.90
2723;DHT22;1369;53.216;10.396;2023-04-12T07:35:10;10.50;99.90
2723;DHT22;1369;53.216;10.396;2023-04-12T07:37:36;10.20;99.90
2723;DHT22;1369;53.216;10.396;2023-04-12T07:40:01;10.10;99.90
2723;DHT22;1369;53.216;10.396;2023-04-12T07:42:27;10.00;99.90
2723;DHT22;1369;53.216;10.396;2023-04-12T07:44:53;10.10;99.90
2723;DHT22;1369;53.216;10.396;2023-04-12T07:47:18;10.10;99.90
2723;DHT22;1369;53.216;10.396;2023-04-12T07:49:43;10.20;99.90
2723;DHT22;1369;53.216;10.396;2023-04-12T07:52:09;10.30;99.90
2723;DHT22;1369;53.216;10.396;2023-04-12T07:54:35;10.30;99.90
2723;DHT22;1369;53.216;10.396;2023-04-12T07:57:01;10.40;99.90
2723;DHT22;1369;53.216;10.396;2023-04-12T07:59:28;10.30;99.90
2723;DHT22;1369;53.216;10.396;2023-04-12T08:01:53;10.30;99.90
2723;DHT22;1369;53.216;10.396;2023-04-12T08:04:19;10.20;99.90
2723;DHT22;1369;53.216;10.396;2023-04-12T08:06:45;10.20;99.90
2723;DHT22;1369;53.216;10.396;2023-04-12T08:09:11;10.30;99.90
2723;DHT22;1369;53.216;10.396;2023-04-12T08:11:36;10.00;99.90
2723;DHT22;1369;53.216;10.396;2023-04-12T08:14:02;10.00;99.90
2723;DHT22;1369;53.216;10.396;2023-04-12T08:16:27;10.10;99.90
2723;DHT22;1369;53.216;10.396;2023-04-12T08:18:53;10.00;99.90
2723;DHT22;1369;53.216;10.396;2023-04-12T08:21:21;10.00;99.90
2723;DHT22;1369;53.216;10.396;2023-04-12T08:23:47;10.00;99.90
2723;DHT22;1369;53.216;10.396;2023-04-12T08:26:15;10.00;99.90
2723;DHT22;1369;53.216;10.396;2023-04-12T08:28:41;10.10;99.90
2723;DHT22;1369;53.216;10.396;2023-04-12T08:31:07;10.10;99.90
2723;DHT22;1369;53.216;10.396;2023-04-12T08:33:33;10.10;99.90
2723;DHT22;1369;53.216;10.396;2023-04-12T08:35:58;10.10;99.90
2723;DHT22;1369;53.216;10.396;2023-04-12T08:38:24;10.10;99.90
2723;DHT22;1369;53.216;10.396;2023-04-12T08:40:50;10.10;99.90
2723;DHT22;1369;53.216;10.396;2023-04-12T08:43:17;10.10;99.90
2723;DHT22;1369;53.216;10.396;2023-04-12T08:45:43;10.10;99.90
2723;DHT22;1369;53.216;10.396;2023-04-12T08:48:09;10.10;99.90
2723;DHT22;1369;53.216;10.396;2023-04-12T08:50:35;10.10;99.90
2723;DHT22;1369;53.216;10.396;2023-04-12T08:53:01;10.20;99.90
2723;DHT22;1369;53.216;10.396;2023-04-12T08:55:27;10.20;99.90
2723;DHT22;1369;53.216;10.396;2023-04-12T08:57:54;10.20;99.90
2723;DHT22;1369;53.216;10.396;2023-04-12T09:00:23;10.30;99.90
2723;DHT22;1369;53.216;10.396;2023-04-12T09:02:49;10.30;99.90
2723;DHT22;1369;53.216;10.396;2023-04-12T09:05:14;10.40;99.90
2723;DHT22;1369;53.216;10.396;2023-04-12T09:07:41;10.50;99.90
2723;DHT22;1369;53.216;10.396;2023-04-12T09:10:07;10.60;99.90
2723;DHT22;1369;53.216;10.396;2023-04-12T09:12:33;10.50;99.90
2723;DHT22;1369;53.216;10.396;2023-04-12T09:17:34;10.50;99.90
2723;DHT22;1369;53.216;10.396;2023-04-12T09:22:41;10.70;99.90
2723;DHT22;1369;53.216;10.396;2023-04-12T09:25:11;10.80;99.90
2723;DHT22;1369;53.216;10.396;2023-04-12T09:30:12;11.00;99.90
2723;DHT22;1369;53.216;10.396;2023-04-12T09:32:38;11.20;99.90
2723;DHT22;1369;53.216;10.396;2023-04-12T09:35:04;11.50;99.90
2723;DHT22;1369;53.216;10.396;2023-04-12T09:37:30;11.90;99.90
2723;DHT22;1369;53.216;10.396;2023-04-12T09:40:07;12.30;99.90
2723;DHT22;1369;53.216;10.396;2023-04-12T09:42:33;12.60;99.90
2723;DHT22;1369;53.216;10.396;2023-04-12T09:45:00;12.70;99.90
2723;DHT22;1369;53.216;10.396;2023-04-12T09:47:37;12.90;99.90
2723;DHT22;1369;53.216;10.396;2023-04-12T09:50:07;13.10;99.90
2723;DHT22;1369;53.216;10.396;2023-04-12T09:52:40;13.30;99.90
2723;DHT22;1369;53.216;10.396;2023-04-12T09:55:09;13.30;99.90
2723;DHT22;1369;53.216;10.396;2023-04-12T09:57:43;13.50;99.90
2723;DHT22;1369;53.216;10.396;2023-04-12T10:00:10;13.40;99.90
2723;DHT22;1369;53.216;10.396;2023-04-12T10:02:40;13.70;99.90
2723;DHT22;1369;53.216;10.396;2023-04-12T10:05:06;13.70;99.90
2723;DHT22;1369;53.216;10.396;2023-04-12T10:07:35;13.60;99.90
2723;DHT22;1369;53.216;10.396;2023-04-12T10:10:01;13.50;99.90
2723;DHT22;1369;53.216;10.396;2023-04-12T10:12:28;13.50;99.90
2723;DHT22;1369;53.216;10.396;2023-04-12T10:14:54;13.30;99.90
2723;DHT22;1369;53.216;10.396;2023-04-12T10:17:21;13.00;99.90
2723;DHT22;1369;53.216;10.396;2023-04-12T10:19:47;12.80;99.90
2723;DHT22;1369;53.216;10.396;2023-04-12T10:22:13;12.70;99.90
2723;DHT22;1369;53.216;10.396;2023-04-12T10:24:42;12.60;99.90
2723;DHT22;1369;53.216;10.396;2023-04-12T10:27:08;12.50;99.90
2723;DHT22;1369;53.216;10.396;2023-04-12T10:29:34;12.40;99.90
2723;DHT22;1369;53.216;10.396;2023-04-12T10:34:43;12.30;99.90
2723;DHT22;1369;53.216;10.396;2023-04-12T10:37:09;12.40;99.90
2723;DHT22;1369;53.216;10.396;2023-04-12T10:39:43;12.30;99.90
2723;DHT22;1369;53.216;10.396;2023-04-12T10:44:50;12.10;99.90
2723;DHT22;1369;53.216;10.396;2023-04-12T10:50:24;12.00;99.90
2723;DHT22;1369;53.216;10.396;2023-04-12T10:55:34;11.90;99.90
2723;DHT22;1369;53.216;10.396;2023-04-12T10:57:59;11.90;99.90
2723;DHT22;1369;53.216;10.396;2023-04-12T11:03:23;11.90;99.90
2723;DHT22;1369;53.216;10.396;2023-04-12T11:06:01;11.70;99.90
2723;DHT22;1369;53.216;10.396;2023-04-12T11:08:31;11.40;99.90
2723;DHT22;1369;53.216;10.396;2023-04-12T11:11:17;11.30;99.90
2723;DHT22;1369;53.216;10.396;2023-04-12T11:13:43;11.20;99.90
2723;DHT22;1369;53.216;10.396;2023-04-12T11:16:10;11.10;99.90
2723;DHT22;1369;53.216;10.396;2023-04-12T11:18:38;11.10;99.90
2723;DHT22;1369;53.216;10.396;2023-04-12T11:21:04;11.00;99.90
2723;DHT22;1369;53.216;10.396;2023-04-12T11:23:31;11.10;99.90
2723;DHT22;1369;53.216;10.396;2023-04-12T11:25:57;11.00;99.90
2723;DHT22;1369;53.216;10.396;2023-04-12T11:28:23;11.00;99.90
2723;DHT22;1369;53.216;10.396;2023-04-12T11:30:56;11.00;99.90
2723;DHT22;1369;53.216;10.396;2023-04-12T11:33:38;11.00;99.90
2723;DHT22;1369;53.216;10.396;2023-04-12T11:36:08;10.90;99.90
2723;DHT22;1369;53.216;10.396;2023-04-12T11:38:35;10.90;99.90
2723;DHT22;1369;53.216;10.396;2023-04-12T11:41:02;11.00;99.90
2723;DHT22;1369;53.216;10.396;2023-04-12T11:43:28;11.10;99.90
2723;DHT22;1369;53.216;10.396;2023-04-12T11:45:57;11.10;99.90
2723;DHT22;1369;53.216;10.396;2023-04-12T11:48:24;11.10;99.90
2723;DHT22;1369;53.216;10.396;2023-04-12T11:50:50;11.00;99.90
2723;DHT22;1369;53.216;10.396;2023-04-12T11:53:15;11.00;99.90
2723;DHT22;1369;53.216;10.396;2023-04-12T11:55:47;10.90;99.90
2723;DHT22;1369;53.216;10.396;2023-04-12T11:58:13;10.90;99.90
2723;DHT22;1369;53.216;10.396;2023-04-12T12:00:40;10.90;99.90
2723;DHT22;1369;53.216;10.396;2023-04-12T12:03:06;10.90;99.90
2723;DHT22;1369;53.216;10.396;2023-04-12T12:05:32;10.80;99.90
2723;DHT22;1369;53.216;10.396;2023-04-12T12:08:01;10.80;99.90
2723;DHT22;1369;53.216;10.396;2023-04-12T12:10:32;10.80;99.90
2723;DHT22;1369;53.216;10.396;2023-04-12T12:12:57;10.80;99.90
2723;DHT22;1369;53.216;10.396;2023-04-12T12:15:28;10.80;99.90
2723;DHT22;1369;53.216;10.396;2023-04-12T12:17:54;10.80;99.90
2723;DHT22;1369;53.216;10.396;2023-04-12T12:20:20;10.90;99.90
2723;DHT22;1369;53.216;10.396;2023-04-12T12:22:46;10.90;99.90
2723;DHT22;1369;53.216;10.396;2023-04-12T12:25:12;10.80;99.90
2723;DHT22;1369;53.216;10.396;2023-04-12T12:27:38;10.60;99.90
2723;DHT22;1369;53.216;10.396;2023-04-12T12:30:07;10.60;99.90
2723;DHT22;1369;53.216;10.396;2023-04-12T12:32:35;10.60;99.90
2723;DHT22;1369;53.216;10.396;2023-04-12T12:35:02;10.50;99.90
2723;DHT22;1369;53.216;10.396;2023-04-12T12:37:29;10.50;99.90
2723;DHT22;1369;53.216;10.396;2023-04-12T12:40:11;10.50;99.90
2723;DHT22;1369;53.216;10.396;2023-04-12T12:45:11;10.40;99.90
2723;DHT22;1369;53.216;10.396;2023-04-12T12:48:00;10.30;99.90
2723;DHT22;1369;53.216;10.396;2023-04-12T12:50:31;10.40;99.90
2723;DHT22;1369;53.216;10.396;2023-04-12T12:52:57;10.30;99.90
2723;DHT22;1369;53.216;10.396;2023-04-12T12:55:25;10.10;99.90
2723;DHT22;1369;53.216;10.396;2023-04-12T12:57:52;10.10;99.90
2723;DHT22;1369;53.216;10.396;2023-04-12T13:00:20;10.00;99.90
2723;DHT22;1369;53.216;10.396;2023-04-12T13:02:47;10.00;99.90
2723;DHT22;1369;53.216;10.396;2023-04-12T13:05:13;10.00;99.90
2723;DHT22;1369;53.216;10.396;2023-04-12T13:07:38;10.00;99.90
2723;DHT22;1369;53.216;10.396;2023-04-12T13:10:04;10.00;99.90
2723;DHT22;1369;53.216;10.396;2023-04-12T13:12:30;10.00;99.90
2723;DHT22;1369;53.216;10.396;2023-04-12T13:14:56;10.00;99.90
2723;DHT22;1369;53.216;10.396;2023-04-12T13:17:22;10.10;99.90
2723;DHT22;1369;53.216;10.396;2023-04-12T13:19:48;10.10;99.90
2723;DHT22;1369;53.216;10.396;2023-04-12T13:22:14;10.10;99.90
2723;DHT22;1369;53.216;10.396;2023-04-12T13:24:41;10.10;99.90
2723;DHT22;1369;53.216;10.396;2023-04-12T13:27:07;10.30;99.90
2723;DHT22;1369;53.216;10.396;2023-04-12T13:29:33;10.30;99.90
2723;DHT22;1369;53.216;10.396;2023-04-12T13:31:58;10.50;99.90
2723;DHT22;1369;53.216;10.396;2023-04-12T13:34:24;10.60;99.90
2723;DHT22;1369;53.216;10.396;2023-04-12T13:36:50;10.80;99.90
2723;DHT22;1369;53.216;10.396;2023-04-12T13:39:16;10.60;99.90
2723;DHT22;1369;53.216;10.396;2023-04-12T13:41:41;10.70;99.90
2723;DHT22;1369;53.216;10.396;2023-04-12T13:44:07;10.80;99.90
2723;DHT22;1369;53.216;10.396;2023-04-12T13:46:32;10.60;99.90
2723;DHT22;1369;53.216;10.396;2023-04-12T13:48:58;10.70;99.90
2723;DHT22;1369;53.216;10.396;2023-04-12T13:51:23;10.80;99.90
2723;DHT22;1369;53.216;10.396;2023-04-12T13:53:51;10.70;99.90
2723;DHT22;1369;53.216;10.396;2023-04-12T13:56:17;10.70;99.90
2723;DHT22;1369;53.216;10.396;2023-04-12T13:58:42;10.70;99.90
2723;DHT22;1369;53.216;10.396;2023-04-12T14:01:08;10.50;99.90
2723;DHT22;1369;53.216;10.396;2023-04-12T14:03:34;10.40;99.90
2723;DHT22;1369;53.216;10.396;2023-04-12T14:06:00;10.50;99.90
2723;DHT22;1369;53.216;10.396;2023-04-12T14:08:28;10.40;99.90
2723;DHT22;1369;53.216;10.396;2023-04-12T14:10:54;10.20;99.90
2723;DHT22;1369;53.216;10.396;2023-04-12T14:13:23;10.20;99.90
2723;DHT22;1369;53.216;10.396;2023-04-12T14:15:49;10.20;99.90
2723;DHT22;1369;53.216;10.396;2023-04-12T14:18:16;10.30;99.90
2723;DHT22;1369;53.216;10.396;2023-04-12T14:20:41;10.30;99.90
2723;DHT22;1369;53.216;10.396;2023-04-12T14:23:10;10.30;99.90
2723;DHT22;1369;53.216;10.396;2023-04-12T14:25:38;10.30;99.90
2723;DHT22;1369;53.216;10.396;2023-04-12T14:28:03;10.20;99.90
2723;DHT22;1369;53.216;10.396;2023-04-12T14:30:29;10.20;99.90
2723;DHT22;1369;53.216;10.396;2023-04-12T14:32:54;10.10;99.90
2723;DHT22;1369;53.216;10.396;2023-04-12T14:35:20;10.10;99.90
2723;DHT22;1369;53.216;10.396;2023-04-12T14:37:45;10.00;99.90
2723;DHT22;1369;53.216;10.396;2023-04-12T14:40:11;10.00;99.90
2723;DHT22;1369;53.216;10.396;2023-04-12T14:42:36;10.00;99.90
2723;DHT22;1369;53.216;10.396;2023-04-12T14:45:03;10.10;99.90
2723;DHT22;1369;53.216;10.396;2023-04-12T14:47:30;10.10;99.90
2723;DHT22;1369;53.216;10.396;2023-04-12T14:49:56;10.20;99.90
2723;DHT22;1369;53.216;10.396;2023-04-12T14:52:21;10.20;99.90
2723;DHT22;1369;53.216;10.396;2023-04-12T14:54:47;10.10;99.90
2723;DHT22;1369;53.216;10.396;2023-04-12T14:57:12;10.10;99.90
2723;DHT22;1369;53.216;10.396;2023-04-12T14:59:39;10.20;99.90
2723;DHT22;1369;53.216;10.396;2023-04-12T15:02:04;10.20;99.90
2723;DHT22;1369;53.216;10.396;2023-04-12T15:04:31;10.30;99.90
2723;DHT22;1369;53.216;10.396;2023-04-12T15:06:56;10.30;99.90
2723;DHT22;1369;53.216;10.396;2023-04-12T15:09:22;10.30;99.90
2723;DHT22;1369;53.216;10.396;2023-04-12T15:11:50;10.40;99.90
2723;DHT22;1369;53.216;10.396;2023-04-12T15:14:21;10.50;99.90
2723;DHT22;1369;53.216;10.396;2023-04-12T15:16:47;10.40;99.90
2723;DHT22;1369;53.216;10.396;2023-04-12T15:19:13;10.30;99.90
2723;DHT22;1369;53.216;10.396;2023-04-12T15:21:40;10.30;99.90
2723;DHT22;1369;53.216;10.396;2023-04-12T15:24:06;10.30;99.90
2723;DHT22;1369;53.216;10.396;2023-04-12T15:26:33;10.40;99.90
2723;DHT22;1369;53.216;10.396;2023-04-12T15:29:00;10.50;99.90
2723;DHT22;1369;53.216;10.396;2023-04-12T15:31:27;10.50;99.90
2723;DHT22;1369;53.216;10.396;2023-04-12T15:33:52;10.40;99.90
2723;DHT22;1369;53.216;10.396;2023-04-12T15:36:18;10.40;99.90
2723;DHT22;1369;53.216;10.396;2023-04-12T15:38:45;10.40;99.90
2723;DHT22;1369;53.216;10.396;2023-04-12T15:41:11;10.50;99.90
2723;DHT22;1369;53.216;10.396;2023-04-12T15:43:37;10.60;99.90
2723;DHT22;1369;53.216;10.396;2023-04-12T15:46:02;10.50;99.90
2723;DHT22;1369;53.216;10.396;2023-04-12T15:48:28;10.50;99.90
2723;DHT22;1369;53.216;10.396;2023-04-12T15:50:55;10.50;99.90
2723;DHT22;1369;53.216;10.396;2023-04-12T15:53:25;10.50;99.90
2723;DHT22;1369;53.216;10.396;2023-04-12T15:55:51;10.40;99.90
2723;DHT22;1369;53.216;10.396;2023-04-12T15:58:22;10.40;99.90
2723;DHT22;1369;53.216;10.396;2023-04-12T16:00:48;10.40;99.90
2723;DHT22;1369;53.216;10.396;2023-04-12T16:08:49;10.20;99.90
2723;DHT22;1369;53.216;10.396;2023-04-12T16:11:16;10.20;99.90
2723;DHT22;1369;53.216;10.396;2023-04-12T16:13:42;10.30;99.90
2723;DHT22;1369;53.216;10.396;2023-04-12T16:16:11;10.30;99.90
2723;DHT22;1369;53.216;10.396;2023-04-12T16:18:38;10.30;99.90
2723;DHT22;1369;53.216;10.396;2023-04-12T16:21:04;10.30;99.90
2723;DHT22;1369;53.216;10.396;2023-04-12T16:23:30;10.30;99.90
2723;DHT22;1369;53.216;10.396;2023-04-12T16:25:57;10.30;99.90
2723;DHT22;1369;53.216;10.396;2023-04-12T16:28:26;10.30;99.90